If you wish to contribute or participate in the discussions about articles you are invited to join SKYbrary as a registered user

 Actions

Herat International Airport

From SKYbrary Wiki

OAHR
Airport
ICAO: OAHR – IATA: HEA
Summary
Name Herat International Airport
Region Asia and Pacific
Territory Afghanistan AF.gif
Location Herat, Herat
Serving Herat
Elevation 977.189 m
3,206 ft
3,206 ft977.189 m
Type medium airport
Coordinates 34° 12' 28.43" N, 62° 13' 40.57" E
Runways
Designator Length Width Surface ROPS
18/36 2505 m8,218.504 ft
46 m150.919 ft
ASP /


METAR
Observation OAHR 180755Z 27009KT CAVOK 23/M02 Q1021 RMK A3017 BLU
Station Herat
Date/Time 18 October 2019 07:55:00
Wind direction 270°
Wind speed 09 kts
Lowest cloud amount clouds and visibility OK
Temperature 23°C
Dew point
Humidity 18%
QNH 1021 hPa
Weather condition n/a

Herat International Airport

ICAO: OAHR IATA: HEA

Description

Herat International Airport, is located 10.5 km5.67 nm
10,500 m
34,448.819 ft
southeast of the city of Herat in western Afghanistan.

Climatology

Continental, semi-arid climate (Köppen climate classification BSk) with brief, but cold, winters and long, hot and dry summers.

Maps

Terrain

Loading map...

Airport Layout

Loading map...


Accidents & Serious Incidents at or in vicinity of OAHR

None on SKYbrary